Latest Coastal Weather Observations for Ngayawili (Elcho Island)

IDD60701

Issued at 7:41 pm CST Saturday 22 February 2020 (issued every 10 minutes, with the page automatically refreshed every 10 minutes)

About coastal observations | Map of coastal stations | Coastal observations for NT | Marine services | Other Formats
Station Details ID: 014517 Name: NGAYAWILI Lat: -12.00 Lon: 135.57 Height: 8.1 m
Data from the previous 72 hours. | See also: Recent months at Ngayawili (Elcho Island)
Date/Time
CST
Wind Sea
Height
m
Swell Vis
km
Cloud Weather Temp
°C
Press
hPa
Rain since
9am
mm
Dir  Spd
kts
Gust
kts
Height
m
Period
s
Dir
22/07:30pm SSE 4 4 - - - - - - - 26.5 1004.7 31.4
22/07:00pm SSE 5 6 - - - - - - - 26.8 1004.1 31.4
22/06:30pm SSE 4 5 - - - - - - - 27.1 1004.2 31.4
22/06:00pm WSW 9 11 - - - - - - - 27.9 1004.4 31.4
22/05:30pm WSW 9 11 - - - - - - - 27.4 1004.1 31.4
22/05:00pm SSW 7 9 - - - - - - - 26.7 1003.3 31.4
22/04:30pm SW 9 11 - - - - - - - 26.3 1003.7 31.4
22/04:00pm SSW 7 10 - - - - - - - 25.5 1003.3 31.4
22/03:30pm WSW 14 19 - - - - - - - 25.8 1004.1 31.2
22/03:00pm SSE 8 12 - - - - - - Rain 25.9 1004.4 23.6
22/02:30pm WNW 10 12 - - - - - - - 29.5 1004.0 2.2
22/02:00pm WNW 9 12 - - - - - - - 30.8 1004.2 2.0
22/01:30pm WSW 9 11 - - - - - - - 30.2 1005.0 2.0
22/01:00pm WSW 9 11 - - - - - - - 30.8 1006.0 2.0
22/12:30pm SW 9 14 - - - - - - - 30.0 1006.2 2.0
22/12:00pm SW 9 13 - - - - - - - 29.0 1006.6 2.0
22/11:30am S 9 12 - - - - - - - 29.0 1006.7 2.0
22/11:00am S 10 14 - - - - - - - 28.5 1006.7 2.0
22/10:30am SSE 9 12 - - - - - - - 27.1 1006.8 2.0
22/10:02am S 17 27 - - - - - - - 25.6 1007.9 2.0
22/10:00am S 19 28 - - - - - - - 25.7 1007.9 2.0
22/09:55am S 19 30 - - - - - - - 25.6 1008.0 1.8
22/09:50am SSW 16 30 - - - - - - - 26.6 1007.9 1.0
22/09:30am SW 14 17 - - - - - - - 29.4 1007.4 0.0
22/09:00am SW 13 16 - - - - - - - 29.6 1007.2 14.8
22/08:30am SW 11 16 - - - - - - - 29.1 1006.9 14.8
22/08:00am SW 12 14 - - - - - - - 28.7 1006.8 14.8
22/07:30am WSW 15 18 - - - - - - - 28.7 1006.3 14.8
22/07:00am WSW 16 19 - - - - - - - 28.7 1005.7 14.8
22/06:30am WSW 13 16 - - - - - - - 28.5 1005.5 14.8
22/06:00am SW 13 15 - - - - - - - 28.0 1005.1 14.8
22/05:30am SW 14 16 - - - - - - - 28.0 1005.0 14.8
22/05:00am WSW 13 15 - - - - - - - 28.0 1005.1 14.8
22/04:30am WSW 12 15 - - - - - - - 28.0 1005.0 14.8
22/04:00am SW 9 14 - - - - - - - 28.1 1005.0 14.8
22/03:30am SW 8 11 - - - - - - - 27.8 1005.2 14.8
22/03:00am SW 11 13 - - - - - - - 28.0 1005.5 14.8
22/02:30am SSW 7 9 - - - - - - - 27.7 1005.9 14.8
22/02:00am SSW 7 10 - - - - - - - 27.7 1006.2 14.8
22/01:30am SSW 8 10 - - - - - - - 27.6 1006.4 14.8
22/01:00am SSW 7 9 - - - - - - - 27.7 1006.7 14.8
22/12:30am SSW 7 9 - - - - - - - 27.9 1007.0 14.8
22/12:00am SSW 8 11 - - - - - - - 28.0 1007.3 14.8
 
Date/Time
CST
Wind Sea
Height
m
Swell Vis
km
Cloud Weather Temp
°C
Press
hPa
Rain since
9am
mm
Dir  Spd
kts
Gust
kts
Height
m
Period
s
Dir
21/11:30pm SSW 10 14 - - - - - - - 28.3 1007.5 14.8
21/11:00pm SSW 9 11 - - - - - - - 28.4 1007.4 14.8
21/10:30pm SW 8 11 - - - - - - - 28.7 1007.3 14.8
21/10:00pm NW 9 11 - - - - - - - 28.9 1007.1 14.8
21/09:30pm WSW 8 9 - - - - - - - 29.2 1006.8 14.8
21/09:00pm WSW 9 11 - - - - - - - 29.1 1006.5 14.8
21/08:30pm WSW 7 10 - - - - - - - 28.8 1006.3 14.8
21/08:00pm W 6 9 - - - - - - - 28.5 1006.3 14.8
21/07:30pm WNW 5 6 - - - - - - - 28.3 1006.2 14.8
21/07:00pm NW 4 5 - - - - - - - 28.5 1006.0 14.8
21/06:30pm CALM 0 3 - - - - - - - 28.1 1005.9 14.8
21/06:00pm CALM 0 0 - - - - - - - 28.3 1005.4 14.8
21/05:30pm CALM 0 0 - - - - - - - 27.6 1005.0 14.8
21/05:00pm NNW 3 5 - - - - - - - 27.5 1005.1 14.8
21/04:30pm CALM 0 0 - - - - - - - 27.1 1004.4 14.8
21/04:00pm CALM 0 0 - - - - - - - 26.8 1004.4 14.8
21/03:30pm E 5 8 - - - - - - - 26.5 1004.2 14.8
21/03:00pm ESE 7 13 - - - - - - Recent precip. 25.8 1004.6 14.8
21/02:30pm ESE 10 20 - - - - - - - 25.8 1005.2 14.8
21/02:00pm SE 8 12 - - - - - - - 26.1 1005.3 14.6
21/01:35pm SW 15 29 - - - - - - - 27.5 1005.6 12.6
21/01:32pm W 13 29 - - - - - - - 28.0 1005.2 12.4
21/01:31pm W 11 29 - - - - - - - 28.4 1005.1 12.0
21/01:30pm WNW 10 29 - - - - - - - 28.4 1005.1 12.0
21/01:12pm SW 15 29 - - - - - - - 27.3 1005.9 5.2
21/01:09pm WSW 12 25 - - - - - - - 28.7 1005.6 0.6
21/01:00pm WSW 10 12 - - - - - - - 32.1 1005.9 0.0
21/12:30pm SW 10 13 - - - - - - - 31.9 1006.7 0.0
21/12:00pm WSW 9 11 - - - - - - - 31.0 1007.2 0.0
21/11:30am WSW 6 8 - - - - - - - 30.9 1007.3 0.0
21/11:00am WSW 6 8 - - - - - - - 30.4 1007.6 0.0
21/10:30am SW 7 9 - - - - - - - 29.4 1007.8 0.0
21/10:00am SSW 6 8 - - - - - - - 28.8 1007.8 0.0
21/09:30am SW 6 9 - - - - - - - 28.2 1007.4 0.0
21/09:00am SSW 8 10 - - - - - - - 27.3 1007.1 0.0
21/08:30am SSW 8 10 - - - - - - - 27.2 1007.1 0.0
21/08:00am SSW 6 9 - - - - - - - 27.2 1006.6 0.0
21/07:30am SW 9 12 - - - - - - - 27.0 1006.2 0.0
21/07:00am SW 10 12 - - - - - - - 27.1 1005.6 0.0
21/06:30am SW 9 12 - - - - - - - 27.0 1005.6 0.0
21/06:00am SW 10 12 - - - - - - - 27.3 1005.3 0.0
21/05:30am WSW 11 13 - - - - - - - 27.1 1005.3 0.0
21/05:00am SW 11 13 - - - - - - - 27.1 1005.1 0.0
21/04:30am SW 11 12 - - - - - - - 27.0 1005.0 0.0
21/04:00am WSW 12 14 - - - - - - - 27.3 1005.1 0.0
21/03:30am WSW 12 14 - - - - - - - 27.6 1005.1 0.0
21/03:00am SW 11 13 - - - - - - - 27.6 1005.5 0.0
21/02:30am SW 9 12 - - - - - - - 27.8 1005.8 0.0
21/02:00am SW 9 11 - - - - - - - 28.1 1006.1 0.0
21/01:30am SW 10 12 - - - - - - - 28.3 1006.6 0.0
21/01:00am WSW 11 13 - - - - - - - 28.3 1006.8 0.0
21/12:30am SW 12 14 - - - - - - - 28.4 1007.0 0.0
21/12:00am W 14 19 - - - - - - - 29.6 1007.3 0.0
 
Date/Time
CST
Wind Sea
Height
m
Swell Vis
km
Cloud Weather Temp
°C
Press
hPa
Rain since
9am
mm
Dir  Spd
kts
Gust
kts
Height
m
Period
s
Dir
20/11:30pm WNW 15 19 - - - - - - - 29.9 1007.5 0.0
20/11:00pm WNW 16 19 - - - - - - - 30.0 1007.7 0.0
20/10:30pm WNW 16 19 - - - - - - - 29.9 1007.5 0.0
20/10:00pm WNW 17 19 - - - - - - - 30.0 1006.9 0.0
20/09:30pm WNW 16 18 - - - - - - - 29.9 1006.6 0.0
20/09:00pm WNW 16 18 - - - - - - - 29.9 1006.1 0.0
20/08:30pm WNW 17 21 - - - - - - - 29.8 1006.1 0.0
20/08:28pm WNW 17 21 - - - - - - - 29.6 1006.0 0.0
20/08:00pm WNW 9 11 - - - - - - - 28.3 1006.1 0.0
20/07:30pm NW 9 11 - - - - - - - 27.6 1005.8 0.0
20/07:00pm NNW 11 13 - - - - - - - 26.9 1005.5 0.0
20/06:30pm NNE 6 10 - - - - - - - 25.8 1005.9 0.0
20/06:00pm NE 8 11 - - - - - - - 24.8 1005.9 0.0
20/05:30pm E 5 8 - - - - - - - 25.8 1005.7 0.0
20/05:00pm E 5 9 - - - - - - - 27.6 1005.3 0.0
20/04:30pm NNW 11 13 - - - - - - - 30.3 1005.1 0.0
20/04:00pm NNW 11 13 - - - - - - - 30.5 1004.7 0.0
20/03:30pm NNW 12 14 - - - - - - - 30.8 1004.2 0.0
20/03:00pm NNW 10 11 - - - - - - - 31.0 1004.9 0.0
20/02:30pm NW 9 11 - - - - - - - 31.2 1005.1 0.0
20/02:00pm NW 9 11 - - - - - - - 31.5 1005.3 0.0
20/01:30pm NW 8 10 - - - - - - - 31.5 1005.9 0.0
20/01:00pm WNW 7 9 - - - - - - - 30.9 1006.6 0.0
20/12:30pm W 7 9 - - - - - - - 30.6 1007.0 0.0
20/12:00pm W 6 8 - - - - - - - 29.8 1007.0 0.0
20/11:30am WSW 5 7 - - - - - - - 29.5 1007.2 0.0
20/11:00am WNW 8 9 - - - - - - - 30.3 1007.2 0.0
20/10:30am W 7 9 - - - - - - - 29.8 1007.6 0.0
20/10:00am WSW 7 9 - - - - - - - 29.4 1007.4 0.0
20/09:30am SW 7 9 - - - - - - - 29.1 1007.1 0.0
20/09:00am SW 5 6 - - - - - - - 28.3 1006.9 -
20/08:30am SSW 5 7 - - - - - - - 27.6 1006.9 -
20/08:00am S 5 7 - - - - - - - 27.2 1006.6 -
20/07:30am S 6 8 - - - - - - - 26.4 1006.6 -
20/07:00am S 7 8 - - - - - - - 26.1 1006.2 -
20/06:30am SW 7 10 - - - - - - - 27.2 1005.7 -
20/06:00am SW 9 11 - - - - - - - 27.2 1005.2 -
20/05:30am WSW 11 13 - - - - - - - 27.4 1005.1 -
20/05:00am SSW 8 10 - - - - - - - 27.0 1004.6 -
20/04:30am SW 8 11 - - - - - - - 27.7 1004.1 -
20/04:00am WSW 8 10 - - - - - - - 27.5 1003.7 -
20/03:30am WSW 10 12 - - - - - - - 27.3 1004.1 -
20/03:00am SW 9 12 - - - - - - - 26.7 1004.3 0.0
20/02:30am SSW 9 11 - - - - - - - 26.1 1004.9 -
20/02:00am S 6 8 - - - - - - - 25.7 1005.5 -
20/01:30am SSW 7 9 - - - - - - - 25.9 1005.6 -
20/01:00am SW 11 14 - - - - - - - 26.2 1006.1 -
20/12:30am CALM 0 3 - - - - - - - 25.4 1006.2 -
20/12:00am SSE 4 5 - - - - - - - 25.6 1006.5 -
 
Date/Time
CST
Wind Sea
Height
m
Swell Vis
km
Cloud Weather Temp
°C
Press
hPa
Rain since
9am
mm
Dir  Spd
kts
Gust
kts
Height
m
Period
s
Dir
19/11:30pm CALM 0 0 - - - - - - - 25.4 1007.0 -
19/11:00pm CALM 0 0 - - - - - - - 25.5 1006.8 -
19/10:30pm CALM 0 0 - - - - - - - 25.3 1006.3 -
19/10:00pm SE 3 4 - - - - - - - 25.3 1006.1 -
19/09:30pm S 4 7 - - - - - - - 25.4 1006.2 -
19/09:00pm W 4 7 - - - - - - Recent precip. 25.5 1006.2 11.0
19/08:30pm SSE 8 11 - - - - - - - 25.3 1006.0 -
19/08:00pm SSW 14 20 - - - - - - - 25.9 1006.4 -

Other formats

Comma delimited format used in spreadsheet applications
http://www.bom.gov.au/fwo/IDD60701/IDD60701.95146.axf

JavaScript Object Notation format (JSON) in row-major order
http://www.bom.gov.au/fwo/IDD60701/IDD60701.95146.json

Data quality

Most of these data are generated automatically and are frequently updated. Quality checks on data are not normally performed. It is possible for incorrect values to appear. Refer to information at About Latest Weather Observations and please check the disclaimer before using these data.